Rockford, Illinois
Current Conditions -  °F | °C
As of 1:54 AM on Wednesday 26 Nov 2014 (Local Time) from KRFD Reporting Station
Light Fog Light Fog  
Wind Chill: 10°   Ceiling: Unl
Heat Index: 10°   Visibility: 5mi
Dew Point:   Wind: 0mph
Humidity: 87%   Direction: NA
Pressure: 30.16"   Gusts: NA
Location:  42.27°N, 89.08°W
Report Text: KRFD 260754Z 00000KT 5SM BCFG BR FEW250 M12/M14 A3016 RMK AO2 SLP228 VIS SW-W 2 T11221139
Loading
Personal Weather Stations






























Interactive Weather Map New forecast layout! Learn more

10-Day Weather Forecast

Advertisements
Track Severe Weather on mobile